createdAt,value
2022-09-24T00:00:53.296Z,152568.00
2022-09-24T00:03:25.287Z,152578.28
2022-09-24T00:05:53.662Z,152569.28
2022-09-24T00:08:21.678Z,152579.56
2022-09-24T00:10:49.907Z,152628.53
2022-09-24T00:13:19.139Z,152607.91
2022-09-24T00:15:48.748Z,152624.66
2022-09-24T00:18:19.171Z,152588.63
2022-09-24T00:20:48.547Z,152579.56
2022-09-24T00:23:15.879Z,152596.31
2022-09-24T00:26:01.352Z,152618.19
2022-09-24T00:28:28.942Z,152627.25
2022-09-24T00:30:58.311Z,152540.94
2022-09-24T00:33:26.442Z,152576.97
2022-09-24T00:36:00.871Z,152538.38
2022-09-24T00:38:28.260Z,152525.50
2022-09-24T00:40:56.115Z,152529.38
2022-09-24T00:43:28.467Z,152556.41
2022-09-24T00:46:00.991Z,152587.31
2022-09-24T00:48:28.359Z,152569.28
2022-09-24T00:50:57.163Z,152556.41
2022-09-24T00:53:29.023Z,152561.56
2022-09-24T00:55:57.410Z,152507.50
2022-09-24T00:58:26.002Z,152510.03
2022-09-24T01:00:59.978Z,152502.34
2022-09-24T01:03:28.614Z,152543.53
2022-09-24T01:05:57.846Z,152473.97
2022-09-24T01:08:25.419Z,152448.22
2022-09-24T01:11:08.049Z,152409.63
2022-09-24T01:13:55.350Z,152444.34
2022-09-24T01:16:31.128Z,152378.72
2022-09-24T01:19:10.550Z,152427.66
2022-09-24T01:21:49.059Z,152479.13
2022-09-24T01:24:30.287Z,152418.59
2022-09-24T01:27:09.292Z,152412.19
2022-09-24T01:29:49.977Z,152399.34
2022-09-24T01:32:26.763Z,152360.72
2022-09-24T01:35:01.899Z,152381.31
2022-09-24T01:37:34.279Z,152463.66
2022-09-24T01:40:04.140Z,152504.91
2022-09-24T01:42:32.550Z,152517.78
2022-09-24T01:45:03.343Z,152455.91
2022-09-24T01:47:35.297Z,152430.19
2022-09-24T01:50:04.379Z,152435.34
2022-09-24T01:52:39.391Z,152396.75
2022-09-24T01:55:10.962Z,152394.16
2022-09-24T01:57:42.860Z,152419.91
2022-09-24T02:00:16.239Z,152416.03
2022-09-24T02:02:48.070Z,152403.16
2022-09-24T02:05:21.066Z,152387.75
2022-09-24T02:07:55.165Z,152380.00
2022-09-24T02:10:22.654Z,152419.91
2022-09-24T02:12:54.025Z,152396.75
2022-09-24T02:15:32.218Z,152432.78
2022-09-24T02:18:08.211Z,152371.00
2022-09-24T02:20:37.842Z,152361.97
2022-09-24T02:23:07.259Z,152363.25
2022-09-24T02:25:39.894Z,152345.28
2022-09-24T02:28:07.261Z,152430.19
2022-09-24T02:30:42.230Z,152367.13
2022-09-24T02:33:32.617Z,152396.75
2022-09-24T02:35:59.162Z,152289.94
2022-09-24T02:38:26.518Z,152332.41
2022-09-24T02:40:55.210Z,152328.53
2022-09-24T02:43:22.644Z,152270.63
2022-09-24T02:45:51.288Z,152304.09
2022-09-24T02:48:18.713Z,152271.94
2022-09-24T02:50:46.583Z,152313.09
2022-09-24T02:53:13.906Z,152354.28
2022-09-24T02:55:41.262Z,152354.28
2022-09-24T02:58:08.592Z,152345.28
2022-09-24T03:00:35.920Z,152377.41
2022-09-24T03:03:04.615Z,152371.00
2022-09-24T03:05:32.004Z,152395.47
2022-09-24T03:07:59.564Z,152396.75
2022-09-24T03:10:26.905Z,152416.03
2022-09-24T03:12:54.237Z,152417.31
2022-09-24T03:15:21.566Z,152414.78
2022-09-24T03:17:48.955Z,152410.91
2022-09-24T03:20:17.683Z,152404.44
2022-09-24T03:22:45.060Z,152455.91
2022-09-24T03:25:12.410Z,152419.91
2022-09-24T03:27:39.730Z,152381.31
2022-09-24T03:30:25.627Z,152408.31
2022-09-24T03:32:53.052Z,152417.31
2022-09-24T03:35:21.692Z,152373.59
2022-09-24T03:37:49.469Z,152398.03
2022-09-24T03:40:16.980Z,152385.16
2022-09-24T03:42:44.698Z,152376.13
2022-09-24T03:45:12.262Z,152380.00
2022-09-24T03:47:40.428Z,152368.44
2022-09-24T03:50:11.568Z,152350.41
2022-09-24T03:52:40.655Z,152344.00
2022-09-24T03:55:08.979Z,152288.66
2022-09-24T03:57:36.355Z,152329.84
2022-09-24T04:00:04.524Z,152291.25
2022-09-24T04:02:31.946Z,152201.16
2022-09-24T04:04:59.341Z,152162.59
2022-09-24T04:07:26.731Z,152172.91
2022-09-24T04:09:55.390Z,152162.59
2022-09-24T04:12:22.998Z,152126.59
2022-09-24T04:14:50.328Z,152106.06
2022-09-24T04:17:17.707Z,152167.75
2022-09-24T04:19:46.096Z,152085.47
2022-09-24T04:22:13.692Z,152144.63
2022-09-24T04:24:41.020Z,152077.75
2022-09-24T04:27:09.676Z,152072.59
2022-09-24T04:29:37.004Z,152098.31
2022-09-24T04:32:04.344Z,152082.88
2022-09-24T04:34:31.963Z,152079.06
2022-09-24T04:36:59.279Z,152093.16
2022-09-24T04:39:27.735Z,152116.31
2022-09-24T04:41:55.379Z,152149.75
2022-09-24T04:44:24.236Z,152129.19
2022-09-24T04:46:52.077Z,152147.16
2022-09-24T04:49:19.513Z,152113.75
2022-09-24T04:51:46.833Z,152147.16
2022-09-24T04:54:14.163Z,152175.44
2022-09-24T04:56:41.505Z,152180.63
2022-09-24T04:59:08.893Z,152234.63
2022-09-24T05:01:37.623Z,152229.47
2022-09-24T05:04:05.364Z,152212.78
2022-09-24T05:06:33.819Z,152147.16
2022-09-24T05:09:01.427Z,152097.03
2022-09-24T05:11:29.021Z,152067.44
2022-09-24T05:13:56.381Z,152109.88
2022-09-24T05:16:23.936Z,152165.19
2022-09-24T05:18:52.599Z,152201.16
2022-09-24T05:21:20.095Z,152221.78
2022-09-24T05:23:47.442Z,152286.09
2022-09-24T05:26:32.192Z,152247.50
2022-09-24T05:28:59.530Z,152247.50
2022-09-24T05:31:26.928Z,152282.19
2022-09-24T05:33:55.572Z,152342.69
2022-09-24T05:36:22.950Z,152349.09
2022-09-24T05:38:50.413Z,152381.31
2022-09-24T05:41:17.746Z,152396.75
2022-09-24T05:43:45.129Z,152407.03
2022-09-24T05:46:12.524Z,152419.91
2022-09-24T05:48:39.911Z,152434.06
2022-09-24T05:51:08.617Z,152430.19
2022-09-24T05:53:36.352Z,152437.94
2022-09-24T05:56:03.696Z,152466.25
2022-09-24T05:58:31.579Z,152502.34
2022-09-24T06:01:00.398Z,152453.38
2022-09-24T06:03:27.904Z,152497.13
2022-09-24T06:05:56.210Z,152468.84
2022-09-24T06:08:24.948Z,152470.09
2022-09-24T06:10:52.288Z,152468.84
2022-09-24T06:13:20.826Z,152471.38
2022-09-24T06:15:48.364Z,152535.84
2022-09-24T06:18:15.754Z,152517.78
2022-09-24T06:20:43.118Z,152543.53
2022-09-24T06:23:10.695Z,152569.28
2022-09-24T06:25:39.369Z,152555.13
2022-09-24T06:28:06.720Z,152578.28
2022-09-24T06:30:36.057Z,152595.03
2022-09-24T06:33:05.228Z,152645.25
2022-09-24T06:35:35.103Z,152681.34
2022-09-24T06:38:02.746Z,152714.81
2022-09-24T06:40:34.061Z,152726.41
2022-09-24T06:43:06.264Z,152716.09
2022-09-24T06:45:34.359Z,152758.63
2022-09-24T06:48:03.223Z,152803.72
2022-09-24T06:50:32.597Z,152857.84
2022-09-24T06:52:59.984Z,152852.69
2022-09-24T06:55:27.790Z,152879.75
2022-09-24T06:58:04.796Z,152833.31
2022-09-24T07:00:32.218Z,152844.97
2022-09-24T07:02:59.567Z,152844.97
2022-09-24T07:05:26.938Z,152918.47
2022-09-24T07:07:54.379Z,152932.63
2022-09-24T07:10:24.330Z,152972.59
2022-09-24T07:12:51.791Z,153015.16
2022-09-24T07:15:20.756Z,153028.03
2022-09-24T07:17:48.130Z,153080.91
2022-09-24T07:20:15.528Z,153119.59
2022-09-24T07:22:43.082Z,153150.56
2022-09-24T07:25:11.970Z,153243.44
2022-09-24T07:27:40.275Z,153253.81
2022-09-24T07:30:09.840Z,153283.50
2022-09-24T07:32:38.499Z,153317.06
2022-09-24T07:35:06.935Z,153315.78
2022-09-24T07:37:34.430Z,153373.81
2022-09-24T07:40:02.408Z,153397.09
2022-09-24T07:42:29.853Z,153426.75
2022-09-24T07:44:57.436Z,153453.84
2022-09-24T07:47:24.786Z,153479.69
2022-09-24T07:49:53.547Z,153545.56
2022-09-24T07:52:20.895Z,153606.31
2022-09-24T07:54:48.704Z,153652.81
2022-09-24T07:57:16.054Z,153665.75
2022-09-24T07:59:44.722Z,153641.22
2022-09-24T08:02:17.583Z,153615.34
2022-09-24T08:04:44.998Z,153639.91
2022-09-24T08:07:14.682Z,153694.19
2022-09-24T08:09:42.231Z,153717.41
2022-09-24T08:12:09.977Z,153690.28
2022-09-24T08:14:37.319Z,153703.19
2022-09-24T08:17:04.678Z,153731.63
2022-09-24T08:19:33.117Z,153774.28
2022-09-24T08:22:00.667Z,153833.72
2022-09-24T08:24:29.337Z,153831.09
2022-09-24T08:26:56.724Z,153906.16
2022-09-24T08:29:24.204Z,153885.44
2022-09-24T08:31:51.592Z,153934.59
2022-09-24T08:34:18.935Z,153880.31
2022-09-24T08:36:49.571Z,153960.47
2022-09-24T08:39:17.009Z,153959.16
2022-09-24T08:42:05.403Z,153973.38
2022-09-24T08:44:56.532Z,153992.81
2022-09-24T08:47:36.168Z,154140.28
2022-09-24T08:50:10.292Z,154259.31
2022-09-24T08:52:51.654Z,154237.28
2022-09-24T08:55:23.259Z,154224.34
2022-09-24T08:58:00.243Z,154314.97
2022-09-24T09:00:30.405Z,154388.72
2022-09-24T09:03:06.089Z,154474.25
2022-09-24T09:05:49.867Z,154467.75
2022-09-24T09:08:50.076Z,154501.44
2022-09-24T09:11:17.182Z,154475.53
2022-09-24T09:13:52.789Z,154475.53
2022-09-24T09:16:25.956Z,154516.97
2022-09-24T09:18:59.681Z,154662.09
2022-09-24T09:21:31.948Z,154737.22
2022-09-24T09:24:02.334Z,154724.25
2022-09-24T09:26:29.739Z,154698.34
2022-09-24T09:29:00.946Z,154680.25
2022-09-24T09:31:37.469Z,154851.28
2022-09-24T09:34:28.205Z,154809.81
2022-09-24T09:37:08.659Z,154789.09
2022-09-24T09:39:46.565Z,154787.78
2022-09-24T09:42:27.883Z,154789.09
2022-09-24T09:44:56.882Z,154833.13
2022-09-24T09:47:35.998Z,154851.28
2022-09-24T09:50:06.868Z,154792.94
2022-09-24T09:52:41.452Z,154874.66
2022-09-24T09:55:20.666Z,154869.50
2022-09-24T09:57:48.466Z,154929.09
2022-09-24T10:00:27.987Z,154983.56
2022-09-24T10:02:56.273Z,155053.59
2022-09-24T10:05:28.550Z,155074.38
2022-09-24T10:07:57.624Z,155126.31
2022-09-24T10:10:26.253Z,155069.16
2022-09-24T10:12:54.812Z,155030.25
2022-09-24T10:15:25.726Z,155061.41
2022-09-24T10:17:55.969Z,155076.94
2022-09-24T10:20:27.749Z,155156.16
2022-09-24T10:22:59.379Z,155230.06
2022-09-24T10:25:29.392Z,155228.78
2022-09-24T10:28:19.894Z,155126.31
2022-09-24T10:30:53.114Z,155134.06
2022-09-24T10:33:22.160Z,155084.75
2022-09-24T10:35:49.682Z,154960.22
2022-09-24T10:38:19.155Z,154982.25
2022-09-24T10:40:47.627Z,155014.69
2022-09-24T10:43:20.263Z,154990.06
2022-09-24T10:46:12.903Z,154983.56
2022-09-24T10:48:46.094Z,155063.97
2022-09-24T10:51:29.306Z,155110.72
2022-09-24T10:54:10.658Z,155235.28
2022-09-24T10:56:45.967Z,155241.75
2022-09-24T10:59:27.967Z,155232.69
2022-09-24T11:02:10.664Z,155006.94
2022-09-24T11:04:51.798Z,155035.44
2022-09-24T11:07:39.284Z,155150.94
2022-09-24T11:10:21.935Z,155121.09
2022-09-24T11:13:02.250Z,155162.59
2022-09-24T11:15:45.620Z,155222.31
2022-09-24T11:18:31.508Z,155185.94
2022-09-24T11:21:14.249Z,154908.38
2022-09-24T11:23:58.287Z,154903.19
2022-09-24T11:26:30.153Z,155004.34
2022-09-24T11:29:16.837Z,155053.59
2022-09-24T11:31:54.191Z,155170.41
2022-09-24T11:34:38.174Z,155113.31
2022-09-24T11:37:23.182Z,155071.78
2022-09-24T11:40:05.447Z,155131.47
2022-09-24T11:42:38.565Z,155165.22
2022-09-24T11:45:28.621Z,155178.19
2022-09-24T11:48:14.161Z,155209.34
2022-09-24T11:50:54.233Z,155123.69
2022-09-24T11:53:30.782Z,155126.31
2022-09-24T11:56:02.679Z,155123.69
2022-09-24T11:58:34.402Z,155153.53
2022-09-24T12:01:11.276Z,155139.25
2022-09-24T12:03:45.006Z,155131.47
2022-09-24T12:06:16.148Z,155201.53
2022-09-24T12:08:50.419Z,155192.47
2022-09-24T12:11:20.722Z,155200.22
2022-09-24T12:13:52.300Z,155196.34
2022-09-24T12:16:24.502Z,155245.66
2022-09-24T12:18:57.258Z,155221.00
2022-09-24T12:21:30.323Z,155149.63
2022-09-24T12:24:05.045Z,155191.16
2022-09-24T12:26:36.911Z,155191.16
2022-09-24T12:29:39.517Z,155047.13
2022-09-24T12:32:32.239Z,155014.69
2022-09-24T12:35:09.576Z,155025.06
2022-09-24T12:37:41.076Z,155069.16
2022-09-24T12:40:26.930Z,155086.03
2022-09-24T12:43:00.566Z,155101.66
2022-09-24T12:45:28.469Z,155114.63
2022-09-24T12:47:59.816Z,155089.91
2022-09-24T12:50:29.837Z,155048.44
2022-09-24T12:52:57.859Z,154968.00
2022-09-24T12:55:28.805Z,154934.31
2022-09-24T12:57:59.251Z,154861.66
2022-09-24T13:00:39.945Z,154807.22
2022-09-24T13:03:27.132Z,154826.66
2022-09-24T13:05:55.458Z,154763.19
2022-09-24T13:08:27.515Z,154774.84
2022-09-24T13:10:58.758Z,154794.25
2022-09-24T13:13:28.665Z,154856.50
2022-09-24T13:16:02.482Z,154918.75
2022-09-24T13:18:32.104Z,154947.28
2022-09-24T13:21:03.151Z,154990.06
2022-09-24T13:23:35.267Z,154968.00
2022-09-24T13:26:05.897Z,155006.94
2022-09-24T13:28:42.625Z,155087.34
2022-09-24T13:31:21.020Z,155091.25
2022-09-24T13:33:52.596Z,155069.16
2022-09-24T13:36:26.919Z,154996.53
2022-09-24T13:39:01.988Z,155035.44
2022-09-24T13:41:42.947Z,154974.50
2022-09-24T13:44:18.049Z,155053.59
2022-09-24T13:46:48.547Z,155073.06
2022-09-24T13:49:19.301Z,155054.91
2022-09-24T13:51:51.078Z,155005.63
2022-09-24T13:54:25.475Z,154986.16
2022-09-24T13:57:10.650Z,154952.47
2022-09-24T13:59:38.543Z,154934.31
2022-09-24T14:02:23.781Z,154942.06
2022-09-24T14:04:54.680Z,154965.44
2022-09-24T14:07:22.698Z,154955.03
2022-09-24T14:09:51.323Z,155009.50
2022-09-24T14:12:22.793Z,155009.50
2022-09-24T14:14:58.271Z,155035.44
2022-09-24T14:17:26.547Z,155043.22
2022-09-24T14:19:57.868Z,155045.84
2022-09-24T14:22:29.854Z,155025.06
2022-09-24T14:25:01.840Z,155051.00
2022-09-24T14:27:33.794Z,155009.50
2022-09-24T14:30:03.084Z,154984.88
2022-09-24T14:32:32.546Z,154978.41
2022-09-24T14:35:01.895Z,154961.53
2022-09-24T14:37:32.604Z,154968.00
2022-09-24T14:40:04.650Z,154939.50
2022-09-24T14:42:40.423Z,154921.34
2022-09-24T14:45:10.757Z,154866.84
2022-09-24T14:47:38.424Z,154824.06
2022-09-24T14:50:35.338Z,154856.50
2022-09-24T14:53:03.198Z,154865.56
2022-09-24T14:55:39.195Z,154861.66
2022-09-24T14:58:24.016Z,154860.34
2022-09-24T15:00:56.171Z,154953.72
2022-09-24T15:03:29.242Z,154914.84
2022-09-24T15:06:05.513Z,154918.75
2022-09-24T15:08:32.937Z,154900.56
2022-09-24T15:11:02.774Z,154939.50
2022-09-24T15:13:34.234Z,154888.91
2022-09-24T15:16:04.120Z,154905.78
2022-09-24T15:18:31.712Z,154892.81
2022-09-24T15:20:59.798Z,154904.47
2022-09-24T15:23:27.169Z,154859.03
2022-09-24T15:25:54.911Z,154838.31
2022-09-24T15:28:27.053Z,154792.94
2022-09-24T15:30:56.853Z,154732.06
2022-09-24T15:33:24.711Z,154720.41
2022-09-24T15:35:52.555Z,154682.78
2022-09-24T15:38:20.965Z,154651.75
2022-09-24T15:40:51.421Z,154636.13
2022-09-24T15:43:23.359Z,154636.13
2022-09-24T15:45:51.549Z,154603.72
2022-09-24T15:48:20.331Z,154571.38
2022-09-24T15:50:50.283Z,154542.88
2022-09-24T15:53:20.040Z,154544.19
2022-09-24T15:55:51.116Z,154516.97
2022-09-24T15:58:19.635Z,154515.69
2022-09-24T16:00:47.321Z,154509.19
2022-09-24T16:03:20.945Z,154511.78
2022-09-24T16:05:49.323Z,154483.28
2022-09-24T16:08:16.742Z,154483.28
2022-09-24T16:10:44.885Z,154487.19
2022-09-24T16:13:13.194Z,154449.66
2022-09-24T16:15:41.337Z,154415.97
2022-09-24T16:18:12.325Z,154422.47
2022-09-24T16:20:41.830Z,154379.69
2022-09-24T16:23:14.940Z,154384.88
2022-09-24T16:25:43.157Z,154356.41
2022-09-24T16:28:10.506Z,154318.81
2022-09-24T16:30:39.212Z,154338.25
2022-09-24T16:33:06.547Z,154312.38
2022-09-24T16:35:33.916Z,154313.69
2022-09-24T16:38:02.587Z,154286.50
2022-09-24T16:40:30.185Z,154250.22
2022-09-24T16:42:57.607Z,154260.63
2022-09-24T16:45:24.947Z,154258.03
2022-09-24T16:47:52.315Z,154245.09
2022-09-24T16:50:23.368Z,154226.94
2022-09-24T16:52:54.682Z,154167.47
2022-09-24T16:55:24.345Z,154201.06
2022-09-24T16:57:52.456Z,154133.75
2022-09-24T17:00:20.640Z,154136.34
2022-09-24T17:02:48.066Z,154190.75
2022-09-24T17:05:15.480Z,154133.75
2022-09-24T17:07:42.816Z,154159.66
2022-09-24T17:10:13.598Z,154155.78
2022-09-24T17:12:43.436Z,154139.00
2022-09-24T17:15:11.052Z,154151.94
2022-09-24T17:17:48.623Z,154124.72
2022-09-24T17:20:17.761Z,154102.69
2022-09-24T17:22:45.282Z,154102.69
2022-09-24T17:25:12.633Z,154139.00
2022-09-24T17:27:40.777Z,154071.69
2022-09-24T17:30:10.819Z,154083.31
2022-09-24T17:32:38.156Z,154075.53
2022-09-24T17:35:06.252Z,154036.72
2022-09-24T17:37:33.707Z,154044.53
2022-09-24T17:40:01.087Z,154012.19
2022-09-24T17:42:28.543Z,153999.25
2022-09-24T17:44:55.883Z,153975.97
2022-09-24T17:47:44.605Z,153957.88
2022-09-24T17:50:12.025Z,153950.13
2022-09-24T17:52:39.404Z,153911.34
2022-09-24T17:55:08.440Z,153898.38
2022-09-24T17:57:35.789Z,153875.13
2022-09-24T18:00:04.284Z,153813.03
2022-09-24T18:02:32.984Z,153819.47
2022-09-24T18:05:00.384Z,153875.13
2022-09-24T18:07:27.696Z,153818.19
2022-09-24T18:09:56.005Z,153807.84
2022-09-24T18:12:23.518Z,153776.81
2022-09-24T18:14:50.862Z,153787.19
2022-09-24T18:17:18.194Z,153782.00
2022-09-24T18:19:46.842Z,153731.63
2022-09-24T18:22:14.169Z,153732.94
2022-09-24T18:24:41.983Z,153736.78
2022-09-24T18:27:09.416Z,153736.78
2022-09-24T18:29:37.506Z,153652.81
2022-09-24T18:32:05.439Z,153634.72
2022-09-24T18:34:32.914Z,153580.47
2022-09-24T18:37:01.589Z,153567.50
2022-09-24T18:39:29.164Z,153570.16
2022-09-24T18:41:56.497Z,153572.75
2022-09-24T18:44:25.202Z,153577.88
2022-09-24T18:46:52.614Z,153546.88
2022-09-24T18:49:20.256Z,153508.09
2022-09-24T18:51:48.867Z,153508.09
2022-09-24T18:54:18.306Z,153490.03
2022-09-24T18:56:46.628Z,153459.03
2022-09-24T18:59:15.885Z,153425.50
2022-09-24T19:01:44.963Z,153406.13
2022-09-24T19:04:14.379Z,153402.22
2022-09-24T19:06:43.578Z,153389.31
2022-09-24T19:09:13.352Z,153376.41
2022-09-24T19:11:42.298Z,153422.91
2022-09-24T19:14:11.289Z,153319.63
2022-09-24T19:16:38.703Z,153308.00
2022-09-24T19:19:06.260Z,153301.59
2022-09-24T19:21:33.674Z,153331.28
2022-09-24T19:24:01.098Z,153278.31
2022-09-24T19:26:30.395Z,153244.75
2022-09-24T19:28:59.440Z,153180.25
2022-09-24T19:31:30.339Z,153194.44
2022-09-24T19:34:00.025Z,153177.66
2022-09-24T19:36:27.418Z,153186.69
2022-09-24T19:38:54.837Z,153221.53
2022-09-24T19:41:26.484Z,153220.25
2022-09-24T19:43:55.926Z,153211.19
2022-09-24T19:46:26.363Z,153208.63
2022-09-24T19:48:55.353Z,153244.75
2022-09-24T19:51:24.603Z,153247.34
2022-09-24T19:53:54.122Z,153284.78
2022-09-24T19:56:23.328Z,153328.69
2022-09-24T19:58:52.644Z,153360.91
2022-09-24T20:01:21.583Z,153351.91
2022-09-24T20:03:50.850Z,153363.50
2022-09-24T20:06:20.003Z,153372.53
2022-09-24T20:08:47.970Z,153331.28
2022-09-24T20:11:20.251Z,153283.50
2022-09-24T20:13:48.326Z,153299.00
2022-09-24T20:16:19.542Z,153348.00
2022-09-24T20:18:47.661Z,153304.19
2022-09-24T20:21:18.272Z,153287.38
2022-09-24T20:23:46.313Z,153306.72
2022-09-24T20:26:32.824Z,153270.59
2022-09-24T20:29:00.241Z,153286.09
2022-09-24T20:31:27.697Z,153291.22
2022-09-24T20:33:55.154Z,153291.22
2022-09-24T20:36:25.326Z,153296.41
2022-09-24T20:38:53.697Z,153336.41
2022-09-24T20:41:23.486Z,153370.00
2022-09-24T20:43:51.244Z,153346.72
2022-09-24T20:46:21.940Z,153306.72
2022-09-24T20:48:49.514Z,153306.72
2022-09-24T20:51:18.629Z,153247.34
2022-09-24T20:53:48.580Z,153310.59
2022-09-24T20:56:17.017Z,153251.22
2022-09-24T20:58:44.416Z,153123.47
2022-09-24T21:01:12.426Z,153079.63
2022-09-24T21:03:45.839Z,153061.59
2022-09-24T21:06:14.885Z,153078.31
2022-09-24T21:08:44.298Z,153099.00
2022-09-24T21:11:15.956Z,153114.47
2022-09-24T21:13:45.116Z,153051.25
2022-09-24T21:16:13.002Z,153051.25
2022-09-24T21:18:44.327Z,153033.22
2022-09-24T21:21:15.981Z,153029.34
2022-09-24T21:23:44.004Z,153059.00
2022-09-24T21:26:14.623Z,153017.75
2022-09-24T21:28:43.514Z,153070.63
2022-09-24T21:31:11.092Z,153028.03
2022-09-24T21:33:38.485Z,153025.47
2022-09-24T21:36:07.822Z,153007.44
2022-09-24T21:38:35.360Z,152981.63
2022-09-24T21:41:03.569Z,152958.41
2022-09-24T21:43:34.983Z,152922.34
2022-09-24T21:46:04.890Z,152953.28
2022-09-24T21:48:33.535Z,152899.16
2022-09-24T21:51:05.736Z,152913.34
2022-09-24T21:53:34.034Z,152891.34
2022-09-24T21:56:02.205Z,152905.56
2022-09-24T21:58:31.860Z,152918.47
2022-09-24T22:01:04.766Z,152862.97
2022-09-24T22:03:33.035Z,152668.56
2022-09-24T22:06:03.280Z,152917.16
2022-09-24T22:08:31.920Z,152955.84
2022-09-24T22:11:05.368Z,152918.47
2022-09-24T22:13:36.815Z,152846.22
2022-09-24T22:16:05.783Z,150568.91
2022-09-24T22:18:34.152Z,143095.75
2022-09-24T22:21:08.013Z,139647.28
2022-09-24T22:23:35.444Z,139230.75
2022-09-24T22:26:02.914Z,132973.81
2022-09-24T22:28:30.570Z,127084.22
2022-09-24T22:31:04.160Z,120199.38
2022-09-24T22:33:49.781Z,115749.03
2022-09-24T22:36:17.271Z,114051.06
2022-09-24T22:38:44.671Z,114068.34
2022-09-24T22:41:12.572Z,114436.88
2022-09-24T22:43:40.284Z,116769.91
2022-09-24T22:46:11.476Z,110543.19
2022-09-24T22:48:39.764Z,105124.88
2022-09-24T22:51:08.748Z,105502.94
2022-09-24T22:53:38.213Z,109298.09
2022-09-24T22:56:07.773Z,113085.69
2022-09-24T22:58:36.295Z,117510.56
2022-09-24T23:01:09.271Z,116110.16
2022-09-24T23:03:37.755Z,114699.28
2022-09-24T23:06:05.931Z,111259.81
2022-09-24T23:08:34.273Z,107503.31
2022-09-24T23:11:07.084Z,104076.44
2022-09-24T23:13:34.740Z,105118.66
2022-09-24T23:16:12.526Z,105820.66
2022-09-24T23:18:40.119Z,106800.94
2022-09-24T23:21:08.997Z,104753.25
2022-09-24T23:23:36.791Z,102373.81
2022-09-24T23:26:07.067Z,103035.72
2022-09-24T23:28:35.485Z,102046.22
2022-09-24T23:31:03.986Z,103444.97
2022-09-24T23:33:34.289Z,106825.22
2022-09-24T23:36:03.057Z,105435.41
2022-09-24T23:38:31.049Z,104754.13
2022-09-24T23:40:58.703Z,104406.47
2022-09-24T23:43:26.067Z,103343.94
2022-09-24T23:45:53.519Z,100952.53
2022-09-24T23:48:21.502Z,100992.53
2022-09-24T23:50:51.099Z,103346.56
2022-09-24T23:53:21.652Z,102318.59
2022-09-24T23:55:50.177Z,99949.75
2022-09-24T23:58:20.018Z,100618.28
